Time;durP1;ratioP1;P1;durP2;ratioP2;P2;SDS_P1;SDS_P2;PMS_P1;PMS_P2;Temp;Humidity;BMP_temperature;BMP_pressure;BME280_temperature;BME280_humidity;BME280_pressure;Samples;Min_cycle;Max_cycle;Signal;HPM_P1;HPM_P2
2022/03/09 00:03:40;;;;;;;0.10;0.10;;;;;;;-1.32;100.00;102553.78;10492257;28;20017;-72
2022/03/09 00:08:41;;;;;;;0.00;0.00;;;;;;;-1.38;100.00;102552.19;10492215;28;20046;-71
2022/03/09 02:48:40;;;;;;;0.20;0.20;;;;;;;-2.56;100.00;102525.41;10452159;28;20116;-73
2022/03/09 02:53:40;;;;;;;0.10;0.10;;;;;;;-2.49;100.00;102524.41;10460758;28;20024;-73
2022/03/09 02:58:43;;;;;;;0.20;0.20;;;;;;;-2.49;100.00;102520.94;10485117;28;20255;-72
2022/03/09 03:03:44;;;;;;;0.20;0.20;;;;;;;-2.57;100.00;102521.94;10482258;28;20046;-72
2022/03/09 03:08:44;;;;;;;0.13;0.13;;;;;;;-2.64;100.00;102519.53;10494753;28;20052;-73
2022/03/09 03:13:45;;;;;;;0.20;0.20;;;;;;;-2.67;100.00;102528.28;10494394;28;20220;-73
2022/03/09 03:18:45;;;;;;;0.10;0.10;;;;;;;-2.61;100.00;102529.88;10455533;28;20044;-73
2022/03/09 03:23:45;;;;;;;0.10;0.10;;;;;;;-2.64;100.00;102530.81;10453084;28;20162;-72
2022/03/09 03:28:46;;;;;;;0.13;0.13;;;;;;;-2.76;100.00;102521.50;10476972;28;20351;-73
2022/03/09 03:33:47;;;;;;;0.10;0.10;;;;;;;-2.91;100.00;102516.56;10493639;28;20066;-73
2022/03/09 03:38:48;;;;;;;0.20;0.20;;;;;;;-3.00;100.00;102521.97;10475070;28;20031;-73
2022/03/09 03:43:48;;;;;;;0.20;0.20;;;;;;;-3.05;100.00;102518.63;10471876;28;20032;-73
2022/03/09 03:48:48;;;;;;;0.10;0.10;;;;;;;-3.21;100.00;102524.13;10452122;28;20017;-73
2022/03/09 03:53:48;;;;;;;0.20;0.20;;;;;;;-3.38;100.00;102526.16;10451472;28;20107;-73
2022/03/09 03:58:49;;;;;;;0.10;0.10;;;;;;;-3.40;100.00;102525.38;10462397;28;20634;-73
2022/03/09 04:03:49;;;;;;;0.10;0.10;;;;;;;-3.35;100.00;102533.06;10486530;28;21165;-73
2022/03/09 04:08:49;;;;;;;0.20;0.20;;;;;;;-3.29;100.00;102539.03;10492082;28;20024;-73
2022/03/09 04:13:50;;;;;;;0.20;0.20;;;;;;;-3.14;100.00;102529.22;10469191;28;20400;-73
2022/03/09 04:18:50;;;;;;;0.20;0.20;;;;;;;-3.11;100.00;102521.31;10432795;28;20419;-73
2022/03/09 04:23:50;;;;;;;0.10;0.10;;;;;;;-3.05;100.00;102529.06;10477342;28;20371;-73
2022/03/09 04:28:51;;;;;;;0.20;0.20;;;;;;;-3.09;100.00;102522.16;10491136;28;20271;-73
2022/03/09 04:33:51;;;;;;;0.20;0.20;;;;;;;-3.14;100.00;102517.06;10474099;28;20030;-73
2022/03/09 04:38:52;;;;;;;0.20;0.20;;;;;;;-3.19;100.00;102514.53;10479713;28;20282;-73
2022/03/09 04:43:52;;;;;;;0.10;0.10;;;;;;;-3.17;100.00;102513.63;10449264;28;20033;-73
2022/03/09 04:48:53;;;;;;;0.20;0.20;;;;;;;-3.32;100.00;102515.63;10462998;28;20028;-73
2022/03/09 04:53:53;;;;;;;0.15;0.15;;;;;;;-3.42;100.00;102525.38;10471969;28;20368;-73
2022/03/09 04:58:53;;;;;;;0.20;0.20;;;;;;;-3.39;100.00;102521.84;10490361;28;20027;-72
2022/03/09 05:03:53;;;;;;;0.10;0.10;;;;;;;-3.36;100.00;102523.56;10479017;28;20294;-72
2022/03/09 05:08:54;;;;;;;0.10;0.10;;;;;;;-3.39;100.00;102521.84;10491156;28;20281;-73
2022/03/09 05:13:54;;;;;;;0.20;0.20;;;;;;;-3.38;100.00;102520.97;10489381;28;20105;-72
2022/03/09 05:18:54;;;;;;;0.10;0.10;;;;;;;-3.37;100.00;102517.50;10470649;28;20023;-71
2022/03/09 05:23:55;;;;;;;0.10;0.10;;;;;;;-3.37;100.00;102522.69;10470667;28;20270;-73
2022/03/09 05:28:57;;;;;;;0.17;0.17;;;;;;;-3.39;100.00;102521.00;10489005;28;20063;-73
2022/03/09 05:33:57;;;;;;;0.20;0.20;;;;;;;-3.44;100.00;102515.88;10487328;28;20109;-73
2022/03/09 05:38:57;;;;;;;0.20;0.20;;;;;;;-3.50;100.00;102524.66;10468768;28;20020;-70
2022/03/09 05:43:58;;;;;;;0.10;0.10;;;;;;;-3.53;100.00;102534.28;10487813;28;20039;-73
2022/03/09 05:48:59;;;;;;;0.10;0.10;;;;;;;-3.69;100.00;102531.94;10488057;28;20013;-73
2022/03/09 05:53:59;;;;;;;0.20;0.20;;;;;;;-3.71;100.00;102538.06;10480390;28;20107;-73
2022/03/09 05:59:00;;;;;;;0.20;0.20;;;;;;;-3.74;100.00;102538.09;10480715;28;20103;-73
2022/03/09 06:04:02;;;;;;;0.10;0.10;;;;;;;-3.22;100.00;102543.25;10461440;28;20366;-73
2022/03/09 06:09:02;;;;;;;0.10;0.10;;;;;;;-2.02;100.00;102548.56;10486734;28;20039;-73
2022/03/09 06:14:03;;;;;;;0.10;0.10;;;;;;;-0.82;100.00;102542.84;10488824;28;20024;-73
2022/03/09 06:19:03;;;;;;;0.10;0.10;;;;;;;0.34;100.00;102549.72;10466376;28;20016;-73
2022/03/09 06:24:04;;;;;;;0.10;0.10;;;;;;;1.51;100.00;102546.44;10467008;28;20016;-73
2022/03/09 06:29:05;;;;;;;0.00;0.00;;;;;;;2.47;100.00;102554.84;10487081;28;20062;-73
2022/03/09 06:34:05;;;;;;;0.00;0.00;;;;;;;3.06;97.63;102549.69;10487201;28;20491;-72
2022/03/09 06:39:05;;;;;;;0.00;0.00;;;;;;;3.74;93.85;102556.19;10488745;28;20021;-72
2022/03/09 06:44:06;;;;;;;0.00;0.00;;;;;;;4.72;91.02;102564.56;10494637;28;20489;-72
2022/03/09 06:49:06;;;;;;;0.00;0.00;;;;;;;5.47;86.07;102564.16;10479765;28;20020;-72
2022/03/09 06:54:06;;;;;;;0.00;0.00;;;;;;;5.71;80.61;102561.97;10490904;28;20095;-72
2022/03/09 06:59:07;;;;;;;0.00;0.00;;;;;;;6.35;80.31;102568.94;10490371;28;20047;-72
2022/03/09 07:04:07;;;;;;;0.00;0.00;;;;;;;6.93;74.63;102572.56;10491141;28;20023;-72
2022/03/09 07:09:07;;;;;;;0.05;0.05;;;;;;;7.08;71.88;102573.44;10492899;28;20332;-72
2022/03/09 07:14:09;;;;;;;0.00;0.00;;;;;;;7.17;71.36;102572.88;10484904;28;20028;-72
2022/03/09 07:19:09;;;;;;;0.03;0.03;;;;;;;7.35;71.18;102577.03;10482385;28;20773;-73
2022/03/09 07:24:09;;;;;;;0.00;0.00;;;;;;;7.54;71.02;102574.09;10477754;28;20103;-72
2022/03/09 07:29:14;;;;;;;0.10;0.10;;;;;;;7.71;69.96;102581.84;10489916;28;20277;-72
2022/03/09 07:34:14;;;;;;;0.10;0.10;;;;;;;8.22;69.93;102585.66;10489053;28;20144;-72
2022/03/09 07:39:14;;;;;;;0.10;0.10;;;;;;;8.53;67.59;102584.53;10495959;28;20563;-72
2022/03/09 07:44:16;;;;;;;0.10;0.10;;;;;;;8.60;66.91;102581.31;10484314;28;20066;-71
2022/03/09 07:49:18;;;;;;;0.10;0.10;;;;;;;8.91;67.01;102584.56;10474055;28;20016;-71
2022/03/09 07:54:18;;;;;;;0.10;0.10;;;;;;;9.20;66.16;102590.53;10488923;28;20071;-71
2022/03/09 07:59:19;;;;;;;0.10;0.10;;;;;;;9.17;65.29;102595.22;10495900;28;20025;-71
2022/03/09 08:04:20;;;;;;;0.10;0.10;;;;;;;9.11;64.83;102593.00;10483064;28;20433;-71
2022/03/09 08:09:21;;;;;;;0.10;0.10;;;;;;;9.42;65.51;102595.16;10477381;28;20032;-71
2022/03/09 08:14:21;;;;;;;0.10;0.10;;;;;;;9.75;63.26;102591.09;10494095;28;20032;-71
2022/03/09 08:19:21;;;;;;;0.10;0.10;;;;;;;9.95;60.18;102600.28;10472200;28;20024;-71
2022/03/09 08:24:22;;;;;;;0.10;0.10;;;;;;;10.10;59.66;102603.63;10495508;28;20038;-71
2022/03/09 08:29:22;;;;;;;0.10;0.10;;;;;;;10.03;60.73;102608.53;10503817;28;20024;-70
2022/03/09 08:34:22;;;;;;;0.00;0.00;;;;;;;9.78;61.09;102613.97;10481707;28;20346;-72
2022/03/09 08:39:22;;;;;;;0.10;0.10;;;;;;;9.89;59.54;102612.22;10484207;28;20112;-71
2022/03/09 08:44:24;;;;;;;0.10;0.10;;;;;;;9.89;58.70;102608.69;10487024;28;20104;-71
2022/03/09 08:49:24;;;;;;;0.10;0.10;;;;;;;9.94;58.25;102609.22;10480294;28;20391;-71
2022/03/09 08:54:24;;;;;;;0.10;0.10;;;;;;;9.85;57.22;102604.56;10461806;28;20123;-71
2022/03/09 08:59:25;;;;;;;0.10;0.10;;;;;;;9.52;56.10;102614.00;10493329;28;20318;-71
2022/03/09 09:04:25;;;;;;;0.10;0.10;;;;;;;9.33;55.97;102621.56;10482501;28;20035;-71
2022/03/09 09:09:25;;;;;;;0.00;0.00;;;;;;;9.37;59.97;102620.41;10477925;28;20020;-71
2022/03/09 09:14:26;;;;;;;0.10;0.10;;;;;;;9.20;56.66;102624.25;10485614;28;20029;-71
2022/03/09 09:19:26;;;;;;;0.10;0.10;;;;;;;9.19;59.25;102630.50;10483968;28;20452;-71
2022/03/09 09:24:27;;;;;;;0.10;0.10;;;;;;;9.09;60.34;102640.09;10490848;28;20414;-71
2022/03/09 09:29:27;;;;;;;0.10;0.10;;;;;;;8.65;59.97;102634.16;10496946;28;20024;-71
2022/03/09 09:34:28;;;;;;;0.10;0.10;;;;;;;8.53;61.69;102632.31;10469057;28;20119;-70
2022/03/09 09:39:28;;;;;;;0.10;0.10;;;;;;;8.39;59.21;102633.22;10460731;28;20016;-70
2022/03/09 09:44:30;;;;;;;0.10;0.10;;;;;;;8.33;61.99;102628.28;10483957;28;20035;-70
2022/03/09 09:49:37;;;;;;;0.10;0.10;;;;;;;8.22;60.77;102633.44;10478606;28;20021;-71
2022/03/09 09:54:37;;;;;;;0.10;0.10;;;;;;;8.03;61.33;102624.03;10473299;28;20096;-70
2022/03/09 09:59:37;;;;;;;0.03;0.03;;;;;;;8.07;61.35;102617.56;10479817;28;20013;-70
2022/03/09 10:04:40;;;;;;;0.00;0.00;;;;;;;8.09;60.60;102620.97;10468758;28;20029;-70
2022/03/09 10:09:41;;;;;;;0.10;0.10;;;;;;;8.16;59.47;102611.66;10457762;28;20100;-70
2022/03/09 10:14:50;;;;;;;0.00;0.00;;;;;;;8.31;59.63;102614.25;10497042;28;20039;-70
2022/03/09 10:19:55;;;;;;;0.10;0.10;;;;;;;8.41;56.41;102611.88;10474336;28;20077;-70
2022/03/09 10:24:59;;;;;;;0.10;0.10;;;;;;;8.63;60.20;102611.31;10487595;28;20028;-70
2022/03/09 10:30:01;;;;;;;0.10;0.10;;;;;;;8.80;60.80;102616.34;10465816;28;20372;-70
2022/03/09 10:35:01;;;;;;;0.00;0.00;;;;;;;9.01;60.75;102620.19;10457292;28;20028;-71
2022/03/09 10:40:11;;;;;;;0.10;0.10;;;;;;;9.10;59.52;102633.78;10457288;28;20381;-70
2022/03/09 10:45:13;;;;;;;0.10;0.10;;;;;;;9.16;56.47;102628.06;10482879;28;20380;-70
2022/03/09 10:50:25;;;;;;;0.10;0.10;;;;;;;9.19;56.66;102628.72;10489558;28;20056;-70
2022/03/09 10:55:32;;;;;;;0.00;0.00;;;;;;;9.21;50.41;102624.13;10484861;28;20028;-71
2022/03/09 11:00:36;;;;;;;0.10;0.10;;;;;;;9.28;52.32;102617.44;10496047;28;20097;-70
2022/03/09 11:05:46;;;;;;;0.10;0.10;;;;;;;9.38;50.13;102611.47;10484729;28;20403;-70
2022/03/09 11:10:47;;;;;;;0.00;0.00;;;;;;;9.41;47.90;102609.44;10505937;28;20391;-70
2022/03/09 11:15:48;;;;;;;0.00;0.00;;;;;;;9.54;51.63;102609.44;10481211;28;20539;-70
2022/03/09 11:20:50;;;;;;;0.03;0.03;;;;;;;9.76;49.61;102606.09;10483836;28;20103;-71
2022/03/09 11:25:59;;;;;;;0.00;0.00;;;;;;;9.87;45.38;102598.19;10455085;28;20057;-72
2022/03/09 11:31:09;;;;;;;0.00;0.00;;;;;;;9.85;43.81;102592.09;10437362;28;20052;-72
2022/03/09 11:36:22;;;;;;;0.00;0.00;;;;;;;9.90;45.39;102592.63;10449703;22;20120;-71
2022/03/09 11:41:31;;;;;;;0.00;0.00;;;;;;;9.95;49.59;102587.81;10394251;28;20029;-71
2022/03/09 11:46:57;;;;;;;0.10;0.10;;;;;;;9.97;45.53;102591.22;10394232;28;20022;-71
2022/03/09 11:52:07;;;;;;;0.10;0.10;;;;;;;9.91;43.50;102582.81;10389310;28;20180;-71
2022/03/09 11:57:09;;;;;;;0.10;0.10;;;;;;;9.86;44.74;102585.84;10404286;28;20021;-72
2022/03/09 12:02:10;;;;;;;0.10;0.10;;;;;;;9.99;48.31;102588.44;10391662;28;20542;-72
2022/03/09 12:07:13;;;;;;;0.10;0.10;;;;;;;9.93;46.18;102579.09;10395009;28;20104;-71
2022/03/09 12:12:14;;;;;;;0.10;0.10;;;;;;;9.92;46.62;102574.75;10401805;28;20065;-71
2022/03/09 12:17:30;;;;;;;0.10;0.10;;;;;;;9.96;47.10;102565.56;10390817;28;20393;-72
2022/03/09 12:22:56;;;;;;;0.10;0.10;;;;;;;10.13;46.89;102563.47;10387917;28;20049;-72
2022/03/09 12:28:25;;;;;;;0.10;0.10;;;;;;;10.33;46.99;102570.84;10379305;28;20101;-72
2022/03/09 12:33:33;;;;;;;0.10;0.10;;;;;;;10.40;43.63;102549.94;10376609;28;20032;-72
2022/03/09 12:38:44;;;;;;;0.10;0.10;;;;;;;10.54;44.47;102546.22;10388344;28;20030;-73
2022/03/09 12:43:50;;;;;;;0.10;0.10;;;;;;;10.64;39.75;102550.72;10394804;28;20036;-72
2022/03/09 12:48:59;;;;;;;0.10;0.10;;;;;;;10.62;40.48;102544.69;10383929;28;20018;-72
2022/03/09 12:53:59;;;;;;;0.10;0.10;;;;;;;10.67;40.44;102541.63;10389660;28;20071;-72
2022/03/09 12:59:09;;;;;;;0.10;0.10;;;;;;;10.70;40.10;102543.22;10399852;28;20070;-72
2022/03/09 13:04:10;;;;;;;0.10;0.10;;;;;;;10.83;40.54;102531.50;10398123;28;20523;-72
2022/03/09 13:09:30;;;;;;;0.10;0.10;;;;;;;10.88;40.39;102528.50;10393163;28;20028;-73
2022/03/09 13:14:30;;;;;;;0.10;0.10;;;;;;;10.92;41.58;102521.94;10393175;28;20060;-72
2022/03/09 13:19:33;;;;;;;0.10;0.10;;;;;;;10.96;41.09;102519.88;10391698;28;20028;-73
2022/03/09 13:24:34;;;;;;;0.10;0.10;;;;;;;10.95;39.47;102518.19;10376772;28;20037;-72
2022/03/09 13:29:41;;;;;;;0.00;0.00;;;;;;;10.94;40.63;102513.81;10394475;28;20100;-73
2022/03/09 13:34:44;;;;;;;0.05;0.05;;;;;;;11.00;42.68;102518.69;10385143;28;20105;-72
2022/03/09 13:39:50;;;;;;;0.10;0.10;;;;;;;11.04;42.67;102517.47;10394653;28;20383;-73
2022/03/09 13:45:17;;;;;;;0.00;0.00;;;;;;;11.12;43.16;102517.72;10383520;28;20021;-73
2022/03/09 13:50:18;;;;;;;0.10;0.10;;;;;;;11.06;39.95;102511.03;10398219;28;20507;-73
2022/03/09 13:55:27;;;;;;;0.10;0.10;;;;;;;11.06;42.98;102507.53;10395402;28;20026;-73
2022/03/09 14:00:33;;;;;;;0.10;0.10;;;;;;;11.09;42.29;102510.78;10389320;28;20032;-72
2022/03/09 14:05:37;;;;;;;0.10;0.10;;;;;;;11.08;41.55;102518.91;10398050;28;20030;-72
2022/03/09 14:10:39;;;;;;;0.10;0.10;;;;;;;11.10;43.45;102508.97;10373339;28;20026;-73
2022/03/09 14:15:41;;;;;;;0.10;0.10;;;;;;;11.15;43.72;102512.13;10363218;28;20392;-73
2022/03/09 14:20:42;;;;;;;0.10;0.10;;;;;;;11.12;42.63;102503.53;10360623;28;20037;-73
2022/03/09 14:25:42;;;;;;;0.10;0.10;;;;;;;11.13;43.33;102506.06;10368162;28;20033;-73
2022/03/09 14:30:42;;;;;;;0.10;0.10;;;;;;;11.15;42.71;102512.13;10388389;28;20036;-73
2022/03/09 14:35:43;;;;;;;0.10;0.10;;;;;;;11.16;43.28;102513.81;10388862;28;20021;-73
2022/03/09 14:40:43;;;;;;;0.10;0.10;;;;;;;11.17;41.81;102496.88;10407990;28;20112;-73
2022/03/09 14:45:43;;;;;;;0.00;0.00;;;;;;;11.15;40.96;102501.47;10394921;28;20036;-72
2022/03/09 14:50:44;;;;;;;0.10;0.10;;;;;;;11.15;42.78;102495.28;10400948;28;20483;-73
2022/03/09 14:55:44;;;;;;;0.10;0.10;;;;;;;11.14;44.75;102483.78;10385043;28;20030;-73
2022/03/09 15:00:46;;;;;;;0.10;0.10;;;;;;;11.09;44.45;102467.28;10392481;28;20034;-73
2022/03/09 15:05:47;;;;;;;0.10;0.10;;;;;;;11.03;44.76;102470.44;10376748;28;20711;-73
2022/03/09 15:10:47;;;;;;;0.10;0.10;;;;;;;10.99;45.23;102466.31;10406230;28;20017;-72
2022/03/09 15:15:48;;;;;;;0.10;0.10;;;;;;;10.96;45.67;102463.88;10383476;28;20269;-72
2022/03/09 15:20:49;;;;;;;0.00;0.00;;;;;;;10.87;46.55;102473.47;10392401;28;20083;-73
2022/03/09 15:25:50;;;;;;;0.10;0.10;;;;;;;10.83;46.36;102483.53;10414652;28;20094;-72
2022/03/09 15:30:51;;;;;;;0.10;0.10;;;;;;;10.76;46.07;102476.09;10413983;28;20024;-72
2022/03/09 15:35:51;;;;;;;0.07;0.07;;;;;;;10.70;46.19;102481.94;10400533;28;20500;-72
2022/03/09 15:40:52;;;;;;;0.10;0.10;;;;;;;10.63;47.21;102470.91;10398072;28;20020;-73
2022/03/09 15:45:52;;;;;;;0.10;0.10;;;;;;;10.54;46.54;102477.78;10387865;28;20384;-72
2022/03/09 15:50:53;;;;;;;0.10;0.10;;;;;;;10.45;47.57;102475.00;10408732;28;20024;-73
2022/03/09 15:55:53;;;;;;;0.10;0.10;;;;;;;10.36;47.00;102485.38;10401152;28;20100;-73
2022/03/09 16:00:54;;;;;;;0.00;0.00;;;;;;;10.26;48.58;102479.00;10398662;28;20515;-73
2022/03/09 16:05:54;;;;;;;0.00;0.00;;;;;;;10.10;49.83;102476.69;10398196;28;20025;-73
2022/03/09 16:10:54;;;;;;;0.10;0.10;;;;;;;9.96;49.77;102480.38;10403276;28;20017;-73
2022/03/09 16:15:55;;;;;;;0.10;0.10;;;;;;;9.84;50.10;102489.28;10403830;28;20476;-73
2022/03/09 16:20:55;;;;;;;0.10;0.10;;;;;;;9.72;50.03;102474.22;10400030;28;20376;-73
2022/03/09 16:25:56;;;;;;;0.10;0.10;;;;;;;9.56;50.89;102479.81;10383799;28;20018;-72
2022/03/09 16:30:56;;;;;;;0.10;0.10;;;;;;;9.44;49.23;102486.88;10397933;28;20029;-73
2022/03/09 16:35:57;;;;;;;0.10;0.10;;;;;;;9.31;49.80;102486.06;10399828;28;20075;-73
2022/03/09 16:40:58;;;;;;;0.00;0.00;;;;;;;9.11;50.45;102489.31;10386355;28;20133;-73
2022/03/09 16:45:59;;;;;;;0.10;0.10;;;;;;;8.95;51.06;102497.50;10393069;28;20093;-73
2022/03/09 16:50:59;;;;;;;0.00;0.00;;;;;;;8.77;50.63;102502.28;10403777;28;20532;-73
2022/03/09 16:56:00;;;;;;;0.10;0.10;;;;;;;8.60;51.93;102506.09;10382711;28;20490;-72
2022/03/09 17:01:00;;;;;;;0.10;0.10;;;;;;;8.35;53.90;102513.06;10406753;28;20283;-73
2022/03/09 17:06:01;;;;;;;0.10;0.10;;;;;;;7.98;54.42;102513.81;10395359;28;20060;-73
2022/03/09 17:11:01;;;;;;;0.00;0.00;;;;;;;7.65;55.48;102515.03;10389453;28;20026;-73
2022/03/09 17:16:02;;;;;;;0.10;0.10;;;;;;;7.36;55.26;102525.72;10387405;28;20388;-73
2022/03/09 17:21:02;;;;;;;0.00;0.00;;;;;;;7.13;55.96;102528.97;10408671;28;20755;-73
2022/03/09 17:26:03;;;;;;;0.00;0.00;;;;;;;6.90;56.94;102533.03;10409395;28;20033;-73
2022/03/09 17:31:04;;;;;;;0.08;0.08;;;;;;;6.72;57.49;102541.13;10391399;28;20045;-73
2022/03/09 17:36:04;;;;;;;0.00;0.00;;;;;;;6.54;57.42;102539.56;10439663;23;20040;-72
2022/03/09 17:41:05;;;;;;;0.00;0.00;;;;;;;6.47;57.75;102548.84;10492056;28;20024;-72
2022/03/09 17:46:05;;;;;;;0.10;0.10;;;;;;;6.25;59.66;102551.88;10490202;28;20736;-73
2022/03/09 17:51:06;;;;;;;0.00;0.00;;;;;;;5.96;60.44;102558.81;10486540;28;20364;-73
2022/03/09 17:56:06;;;;;;;0.00;0.00;;;;;;;5.74;60.85;102567.94;10487955;28;20024;-72
2022/03/09 18:01:06;;;;;;;0.00;0.00;;;;;;;5.55;61.20;102576.00;10491084;28;20021;-72
2022/03/09 18:06:07;;;;;;;0.00;0.00;;;;;;;5.40;62.09;102590.06;10468671;28;20258;-72
2022/03/09 18:11:07;;;;;;;0.00;0.00;;;;;;;5.20;62.32;102594.63;10490837;28;20031;-72
2022/03/09 18:16:08;;;;;;;0.00;0.00;;;;;;;4.99;63.27;102591.31;10490416;28;20020;-72
2022/03/09 18:21:08;;;;;;;0.00;0.00;;;;;;;4.72;67.15;102590.09;10490419;28;20082;-72
2022/03/09 18:26:08;;;;;;;0.00;0.00;;;;;;;4.46;67.43;102587.00;10490819;28;20267;-72
2022/03/09 18:31:09;;;;;;;0.00;0.00;;;;;;;4.53;66.29;102588.38;10472850;28;20020;-72
2022/03/09 18:36:09;;;;;;;0.00;0.00;;;;;;;4.50;66.21;102587.69;10498571;28;20185;-72
2022/03/09 18:41:10;;;;;;;0.00;0.00;;;;;;;4.51;66.45;102584.13;10481196;28;20803;-72
2022/03/09 18:46:10;;;;;;;0.00;0.00;;;;;;;4.44;67.02;102588.00;10497809;28;20021;-72
2022/03/09 18:51:10;;;;;;;0.00;0.00;;;;;;;4.32;67.22;102581.53;10479842;28;20039;-72
2022/03/09 18:56:11;;;;;;;0.00;0.00;;;;;;;4.29;67.42;102589.59;10497557;28;20698;-72
2022/03/09 19:01:11;;;;;;;0.00;0.00;;;;;;;4.26;66.36;102595.03;10497372;28;20391;-72
2022/03/09 19:06:12;;;;;;;0.00;0.00;;;;;;;4.30;66.02;102599.22;10497249;28;20031;-72
2022/03/09 19:11:12;;;;;;;0.00;0.00;;;;;;;4.26;66.46;102595.03;10496945;28;20291;-72
2022/03/09 19:16:12;;;;;;;0.00;0.00;;;;;;;4.25;66.34;102607.38;10496793;28;20030;-72
2022/03/09 19:21:14;;;;;;;0.00;0.00;;;;;;;4.13;66.90;102599.19;10496493;28;20043;-72
2022/03/09 19:26:15;;;;;;;0.00;0.00;;;;;;;3.94;67.76;102602.72;10477962;28;20029;-72
2022/03/09 19:31:15;;;;;;;0.00;0.00;;;;;;;3.82;67.58;102605.94;10496144;28;20047;-72
2022/03/09 19:36:16;;;;;;;0.00;0.00;;;;;;;3.81;67.71;102606.84;10495559;28;20676;-72
2022/03/09 19:41:16;;;;;;;0.00;0.00;;;;;;;3.81;67.51;102614.75;10496050;28;20025;-72
2022/03/09 19:46:16;;;;;;;0.00;0.00;;;;;;;3.75;67.54;102618.53;10494831;28;20400;-72
2022/03/09 19:51:17;;;;;;;0.00;0.00;;;;;;;3.65;68.74;102619.03;10495312;28;20471;-72
2022/03/09 19:56:17;;;;;;;1.55;0.43;;;;;;;3.52;69.32;102626.63;10494982;28;20427;-72
2022/03/09 20:01:17;;;;;;;0.00;0.00;;;;;;;3.34;69.94;102625.66;10495810;28;20035;-72
2022/03/09 20:06:17;;;;;;;0.00;0.00;;;;;;;3.18;71.81;102633.41;10486897;28;20366;-72
2022/03/09 20:11:18;;;;;;;0.00;0.00;;;;;;;3.02;71.99;102635.84;10494522;28;20021;-72
2022/03/09 20:16:19;;;;;;;0.00;0.00;;;;;;;2.95;71.54;102642.28;10494161;28;20020;-72
2022/03/09 20:21:19;;;;;;;0.00;0.00;;;;;;;2.82;72.37;102641.09;10493930;28;20024;-72
2022/03/09 20:26:19;;;;;;;0.00;0.00;;;;;;;2.72;72.91;102643.25;10493920;28;20387;-72
2022/03/09 20:31:20;;;;;;;0.00;0.00;;;;;;;2.72;73.14;102648.53;10493901;28;20027;-72
2022/03/09 20:36:21;;;;;;;0.00;0.00;;;;;;;2.66;72.88;102643.53;10473459;28;20031;-71
2022/03/09 20:41:21;;;;;;;0.00;0.00;;;;;;;2.63;72.98;102646.28;10493338;28;20027;-72
2022/03/09 20:46:21;;;;;;;0.00;0.00;;;;;;;2.57;74.01;102650.00;10492685;28;20107;-71
2022/03/09 20:51:22;;;;;;;0.00;0.00;;;;;;;2.52;74.33;102651.97;10493039;28;20111;-72
2022/03/09 20:56:22;;;;;;;0.03;0.03;;;;;;;2.41;75.24;102662.91;10473911;28;20111;-71
2022/03/09 21:01:23;;;;;;;0.00;0.00;;;;;;;2.21;77.54;102654.97;10492400;28;20028;-72
2022/03/09 21:06:23;;;;;;;0.00;0.00;;;;;;;1.99;79.03;102652.31;10491845;28;20267;-71
2022/03/09 21:11:24;;;;;;;0.00;0.00;;;;;;;1.99;80.14;102663.69;10491964;28;20028;-72
2022/03/09 21:16:24;;;;;;;0.00;0.00;;;;;;;2.04;79.62;102653.00;10491218;28;20048;-72
2022/03/09 21:21:25;;;;;;;0.00;0.00;;;;;;;2.13;78.92;102650.03;10491673;28;20043;-73
2022/03/09 21:26:26;;;;;;;0.00;0.00;;;;;;;2.21;78.51;102652.34;10490862;28;20111;-72
2022/03/09 21:31:27;;;;;;;0.00;0.00;;;;;;;2.28;78.57;102660.84;10491301;28;20025;-72
2022/03/09 21:36:27;;;;;;;0.00;0.00;;;;;;;2.18;79.15;102653.34;10490182;28;20119;-72
2022/03/09 21:41:28;;;;;;;0.00;0.00;;;;;;;1.98;80.10;102651.47;10491097;28;20107;-72
2022/03/09 21:46:29;;;;;;;0.00;0.00;;;;;;;1.82;81.69;102660.84;10490836;28;20120;-72
2022/03/09 21:51:29;;;;;;;0.00;0.00;;;;;;;1.75;81.86;102665.47;10472716;28;20282;-72
2022/03/09 21:56:29;;;;;;;0.00;0.00;;;;;;;1.70;83.17;102677.06;10490323;28;20427;-72
2022/03/09 22:01:30;;;;;;;0.00;0.00;;;;;;;1.61;84.43;102675.63;10490950;28;20028;-72
2022/03/09 22:06:30;;;;;;;0.00;0.00;;;;;;;1.52;85.18;102679.44;10482046;28;20029;-72
2022/03/09 22:11:30;;;;;;;0.00;0.00;;;;;;;1.46;85.09;102686.69;10490032;28;20032;-73
2022/03/09 22:16:31;;;;;;;0.00;0.00;;;;;;;1.47;84.78;102672.66;10467441;28;20141;-72
2022/03/09 22:21:31;;;;;;;0.00;0.00;;;;;;;1.48;84.45;102676.97;10446579;28;20028;-72
2022/03/09 22:26:33;;;;;;;0.00;0.00;;;;;;;1.39;84.25;102678.16;10427992;28;20033;-72
2022/03/09 22:31:34;;;;;;;0.00;0.00;;;;;;;1.25;84.47;102691.78;10466142;28;20021;-71
2022/03/09 22:36:34;;;;;;;0.00;0.00;;;;;;;1.19;84.74;102693.75;10478357;28;20044;-71
2022/03/09 22:41:35;;;;;;;0.00;0.00;;;;;;;1.14;85.39;102704.44;10487008;28;20041;-71
2022/03/09 22:46:36;;;;;;;0.00;0.00;;;;;;;1.08;86.04;102717.75;10469770;28;20103;-71
2022/03/09 22:51:36;;;;;;;0.00;0.00;;;;;;;0.95;86.46;102717.28;10487455;28;20027;-72
2022/03/09 22:56:37;;;;;;;0.00;0.00;;;;;;;0.74;87.20;102716.25;10487070;28;20028;-71
2022/03/09 23:01:37;;;;;;;0.10;0.10;;;;;;;0.56;89.46;102715.06;10487254;28;20071;-71
2022/03/09 23:06:38;;;;;;;0.10;0.10;;;;;;;0.56;90.23;102730.81;10486662;28;20266;-71
2022/03/09 23:11:38;;;;;;;0.10;0.10;;;;;;;0.53;90.32;102730.03;10465933;28;20025;-71
2022/03/09 23:16:38;;;;;;;0.00;0.00;;;;;;;0.46;90.22;102731.97;10472723;28;20020;-71
2022/03/09 23:21:39;;;;;;;0.10;0.10;;;;;;;0.38;91.81;102741.84;10493724;28;20275;-71
2022/03/09 23:26:39;;;;;;;0.03;0.03;;;;;;;0.08;95.98;102743.59;10480549;28;20750;-71
2022/03/09 23:31:39;;;;;;;0.17;0.17;;;;;;;-0.07;99.33;102737.91;10452959;28;20340;-71
2022/03/09 23:36:40;;;;;;;0.00;0.00;;;;;;;-0.19;100.00;102743.50;10485323;28;20347;-71
2022/03/09 23:41:40;;;;;;;0.00;0.00;;;;;;;-0.19;100.00;102750.50;10471646;28;20028;-71
2022/03/09 23:46:41;;;;;;;0.00;0.00;;;;;;;-0.25;100.00;102756.75;10451956;28;20487;-71
2022/03/09 23:51:41;;;;;;;0.00;0.00;;;;;;;-0.30;100.00;102748.16;10454769;28;20029;-71
2022/03/09 23:56:41;;;;;;;0.08;0.08;;;;;;;-0.17;100.00;102757.41;10451256;28;20025;-71
